createdAt,value
2018-03-02T00:00:54.118Z,25.90
2018-03-02T00:03:21.652Z,22.95
2018-03-02T00:05:49.970Z,24.20
2018-03-02T00:08:17.529Z,25.67
2018-03-02T00:10:45.093Z,23.95
2018-03-02T00:13:12.634Z,26.00
2018-03-02T00:15:40.166Z,25.77
2018-03-02T00:18:08.492Z,23.62
2018-03-02T00:20:36.016Z,23.73
2018-03-02T00:23:03.576Z,24.75
2018-03-02T00:25:31.870Z,24.67
2018-03-02T00:27:59.411Z,24.48
2018-03-02T00:30:27.696Z,26.37
2018-03-02T00:32:55.252Z,23.77
2018-03-02T00:35:22.781Z,23.95
2018-03-02T00:37:50.327Z,25.20
2018-03-02T00:40:17.857Z,24.60
2018-03-02T00:42:45.402Z,22.87
2018-03-02T00:45:12.986Z,24.80
2018-03-02T00:47:40.533Z,25.17
2018-03-02T00:50:08.095Z,26.37
2018-03-02T00:52:35.616Z,25.67
2018-03-02T00:55:03.930Z,23.58
2018-03-02T00:57:31.481Z,25.90
2018-03-02T00:59:59.031Z,24.67
2018-03-02T01:02:26.560Z,26.58
2018-03-02T01:04:54.865Z,25.52
2018-03-02T01:07:22.406Z,24.70
2018-03-02T01:09:50.693Z,26.92
2018-03-02T01:12:18.266Z,25.77
2018-03-02T01:14:45.803Z,25.67
2018-03-02T01:17:14.119Z,24.20
2018-03-02T01:19:41.635Z,23.70
2018-03-02T01:22:09.943Z,26.17
2018-03-02T01:24:37.502Z,26.02
2018-03-02T01:27:05.081Z,23.25
2018-03-02T01:29:32.621Z,25.10
2018-03-02T01:32:00.158Z,26.92
2018-03-02T01:34:28.479Z,24.70
2018-03-02T01:36:56.031Z,23.70
2018-03-02T01:39:23.565Z,24.12
2018-03-02T01:41:51.100Z,26.27
2018-03-02T01:44:19.431Z,24.87
2018-03-02T01:46:46.957Z,27.00
2018-03-02T01:49:14.498Z,27.17
2018-03-02T01:51:49.511Z,24.87
2018-03-02T01:54:17.086Z,26.30
2018-03-02T01:56:45.386Z,22.95
2018-03-02T01:59:12.910Z,25.70
2018-03-02T02:01:40.472Z,26.65
2018-03-02T02:04:07.999Z,26.75
2018-03-02T02:06:35.547Z,25.33
2018-03-02T02:09:03.064Z,24.63
2018-03-02T02:11:31.382Z,27.50
2018-03-02T02:13:58.900Z,23.67
2018-03-02T02:16:27.239Z,27.08
2018-03-02T02:18:54.791Z,25.40
2018-03-02T02:21:23.075Z,24.65
2018-03-02T02:23:52.418Z,25.23
2018-03-02T02:26:20.760Z,26.35
2018-03-02T02:28:48.320Z,27.37
2018-03-02T02:31:15.856Z,24.58
2018-03-02T02:33:43.392Z,27.00
2018-03-02T02:36:10.911Z,26.00
2018-03-02T02:38:38.451Z,24.80
2018-03-02T02:41:05.982Z,25.37
2018-03-02T02:43:33.522Z,25.70
2018-03-02T02:46:01.065Z,23.65
2018-03-02T02:48:29.357Z,26.67
2018-03-02T02:50:56.910Z,24.70
2018-03-02T02:53:24.459Z,23.70
2018-03-02T02:55:52.765Z,24.00
2018-03-02T02:58:20.288Z,24.63
2018-03-02T03:00:48.609Z,24.20
2018-03-02T03:03:16.152Z,25.52
2018-03-02T03:05:43.707Z,25.83
2018-03-02T03:08:11.235Z,25.40
2018-03-02T03:10:39.520Z,25.92
2018-03-02T03:13:07.830Z,22.30
2018-03-02T03:15:35.388Z,25.35
2018-03-02T03:18:02.958Z,25.23
2018-03-02T03:20:30.562Z,27.45
2018-03-02T03:22:58.133Z,23.40
2018-03-02T03:25:26.451Z,23.85
2018-03-02T03:27:54.023Z,25.75
2018-03-02T03:30:21.553Z,23.20
2018-03-02T03:32:49.084Z,24.23
2018-03-02T03:35:16.628Z,25.37
2018-03-02T03:37:44.155Z,24.55
2018-03-02T03:40:11.727Z,24.77
2018-03-02T03:42:40.060Z,24.23
2018-03-02T03:45:07.599Z,25.20
2018-03-02T03:47:35.937Z,26.75
2018-03-02T03:50:03.492Z,25.98
2018-03-02T03:52:31.062Z,26.25
2018-03-02T03:54:58.618Z,25.88
2018-03-02T03:57:26.152Z,25.00
2018-03-02T03:59:53.718Z,27.42
2018-03-02T04:02:21.286Z,25.92
2018-03-02T04:04:48.822Z,23.67
2018-03-02T04:07:16.362Z,25.35
2018-03-02T04:09:44.682Z,26.65
2018-03-02T04:12:12.250Z,25.20
2018-03-02T04:14:39.791Z,23.87
2018-03-02T04:17:07.338Z,23.90
2018-03-02T04:19:34.918Z,27.42
2018-03-02T04:22:02.447Z,24.70
2018-03-02T04:24:30.769Z,25.10
2018-03-02T04:26:58.312Z,25.08
2018-03-02T04:29:25.855Z,24.25
2018-03-02T04:31:53.455Z,26.92
2018-03-02T04:34:21.013Z,25.55
2018-03-02T04:36:48.572Z,25.20
2018-03-02T04:39:16.150Z,22.90
2018-03-02T04:41:43.715Z,27.90
2018-03-02T04:44:11.251Z,28.05
2018-03-02T04:46:38.815Z,25.98
2018-03-02T04:49:06.348Z,27.60
2018-03-02T04:51:33.886Z,26.70
2018-03-02T04:54:01.456Z,27.83
2018-03-02T04:56:29.012Z,25.58
2018-03-02T04:58:56.545Z,24.67
2018-03-02T05:01:24.883Z,25.83
2018-03-02T05:03:52.417Z,26.02
2018-03-02T05:06:19.965Z,25.55
2018-03-02T05:08:47.539Z,24.92
2018-03-02T05:11:15.059Z,28.90
2018-03-02T05:13:43.343Z,26.10
2018-03-02T05:16:11.664Z,24.90
2018-03-02T05:18:39.198Z,21.83
2018-03-02T05:21:06.824Z,27.05
2018-03-02T05:23:34.347Z,26.90
2018-03-02T05:26:01.903Z,23.80
2018-03-02T05:28:29.448Z,26.60
2018-03-02T05:30:57.012Z,27.02
2018-03-02T05:33:24.550Z,25.40
2018-03-02T05:35:52.102Z,25.75
2018-03-02T05:38:19.670Z,26.12
2018-03-02T05:40:47.191Z,25.95
2018-03-02T05:43:15.499Z,25.62
2018-03-02T05:45:43.058Z,26.52
2018-03-02T05:48:10.600Z,27.15
2018-03-02T05:50:38.916Z,26.77
2018-03-02T05:53:06.458Z,26.55
2018-03-02T05:55:33.990Z,27.10
2018-03-02T05:58:02.319Z,29.10
2018-03-02T06:00:29.880Z,27.60
2018-03-02T06:02:57.398Z,24.80
2018-03-02T06:05:24.942Z,21.45
2018-03-02T06:07:53.287Z,28.90
2018-03-02T06:10:20.835Z,24.48
2018-03-02T06:12:48.385Z,26.30
2018-03-02T06:15:15.961Z,27.40
2018-03-02T06:17:43.506Z,26.92
2018-03-02T06:20:11.026Z,25.17
2018-03-02T06:22:39.405Z,24.30
2018-03-02T06:25:06.937Z,25.00
2018-03-02T06:27:34.479Z,26.85
2018-03-02T06:30:02.043Z,28.20
2018-03-02T06:32:29.554Z,29.25
2018-03-02T06:34:57.083Z,28.17
2018-03-02T06:37:24.638Z,24.30
2018-03-02T06:39:52.175Z,27.27
2018-03-02T06:42:19.699Z,21.10
2018-03-02T06:44:47.243Z,26.00
2018-03-02T06:47:15.565Z,28.70
2018-03-02T06:49:43.078Z,25.17
2018-03-02T06:52:11.409Z,24.92
2018-03-02T06:54:38.943Z,21.08
2018-03-02T06:57:06.508Z,27.98
2018-03-02T06:59:34.087Z,25.85
2018-03-02T07:02:01.644Z,27.83
2018-03-02T07:04:29.156Z,27.80
2018-03-02T07:06:57.470Z,29.87
2018-03-02T07:09:25.007Z,12.27
2018-03-02T07:11:52.525Z,27.90
2018-03-02T07:14:20.082Z,23.70
2018-03-02T07:16:47.614Z,26.77
2018-03-02T07:19:15.161Z,27.35
2018-03-02T07:21:42.724Z,22.00
2018-03-02T07:24:10.258Z,26.65
2018-03-02T07:26:37.780Z,27.25
2018-03-02T07:29:05.350Z,28.52
2018-03-02T07:31:33.660Z,27.62
2018-03-02T07:34:01.209Z,12.20
2018-03-02T07:36:28.774Z,28.98
2018-03-02T07:38:56.284Z,25.85
2018-03-02T07:41:23.797Z,24.67
2018-03-02T07:43:51.351Z,26.25
2018-03-02T07:46:19.906Z,26.58
2018-03-02T07:48:48.207Z,28.17
2018-03-02T07:51:15.775Z,23.12
2018-03-02T07:53:43.306Z,29.85
2018-03-02T07:56:11.607Z,25.70
2018-03-02T07:58:39.150Z,29.30
2018-03-02T08:01:06.696Z,27.70
2018-03-02T08:03:34.993Z,28.83
2018-03-02T08:06:02.544Z,25.77
2018-03-02T08:08:30.824Z,25.85
2018-03-02T08:10:58.361Z,13.80
2018-03-02T08:13:26.706Z,29.75
2018-03-02T08:15:54.242Z,26.25
2018-03-02T08:18:21.748Z,27.37
2018-03-02T08:20:49.311Z,28.05
2018-03-02T08:23:16.844Z,28.70
2018-03-02T08:25:44.374Z,28.45
2018-03-02T08:28:11.923Z,30.10
2018-03-02T08:30:39.465Z,30.30
2018-03-02T08:33:07.743Z,28.85
2018-03-02T08:35:36.060Z,28.77
2018-03-02T08:38:03.600Z,30.17
2018-03-02T08:40:31.127Z,27.58
2018-03-02T08:42:59.441Z,32.55
2018-03-02T08:45:26.971Z,28.92
2018-03-02T08:47:55.262Z,29.42
2018-03-02T08:50:22.828Z,28.15
2018-03-02T08:52:50.363Z,27.40
2018-03-02T08:55:18.653Z,28.05
2018-03-02T08:57:46.205Z,19.33
2018-03-02T09:00:13.777Z,29.95
2018-03-02T09:02:41.326Z,26.73
2018-03-02T09:05:09.673Z,25.85
2018-03-02T09:07:37.192Z,29.30
2018-03-02T09:10:04.726Z,28.70
2018-03-02T09:12:33.039Z,22.15
2018-03-02T09:15:00.576Z,27.95
2018-03-02T09:17:28.103Z,31.00
2018-03-02T09:19:56.440Z,29.33
2018-03-02T09:22:23.985Z,34.25
2018-03-02T09:24:51.523Z,29.65
2018-03-02T09:27:19.084Z,31.23
2018-03-02T09:29:46.614Z,31.20
2018-03-02T09:32:14.914Z,30.12
2018-03-02T09:34:42.466Z,31.80
2018-03-02T09:37:10.743Z,29.17
2018-03-02T09:39:39.035Z,31.55
2018-03-02T09:42:06.577Z,28.70
2018-03-02T09:44:34.863Z,29.55
2018-03-02T09:47:02.390Z,31.52
2018-03-02T09:49:29.957Z,34.72
2018-03-02T09:51:58.271Z,33.90
2018-03-02T09:54:25.806Z,30.48
2018-03-02T09:56:54.108Z,32.13
2018-03-02T09:59:21.673Z,33.72
2018-03-02T10:01:49.956Z,33.60
2018-03-02T10:04:17.516Z,28.35
2018-03-02T10:06:45.075Z,28.73
2018-03-02T10:09:12.600Z,32.00
2018-03-02T10:11:40.936Z,35.38
2018-03-02T10:14:08.513Z,33.92
2018-03-02T10:16:36.068Z,33.58
2018-03-02T10:19:03.610Z,34.45
2018-03-02T10:21:31.144Z,34.30
2018-03-02T10:23:58.687Z,33.60
2018-03-02T10:26:26.271Z,33.38
2018-03-02T10:28:53.978Z,32.08
2018-03-02T10:31:22.280Z,31.70
2018-03-02T10:33:49.816Z,31.48
2018-03-02T10:36:18.115Z,31.25
2018-03-02T10:38:45.656Z,31.00
2018-03-02T10:41:13.978Z,32.58
2018-03-02T10:43:41.581Z,31.10
2018-03-02T10:46:09.114Z,30.27
2018-03-02T10:48:36.670Z,32.67
2018-03-02T10:51:04.201Z,30.62
2018-03-02T10:53:31.736Z,33.40
2018-03-02T10:56:00.054Z,32.17
2018-03-02T10:58:27.596Z,33.85
2018-03-02T11:00:55.134Z,33.75
2018-03-02T11:03:23.479Z,34.55
2018-03-02T11:05:51.032Z,31.60
2018-03-02T11:08:18.570Z,34.90
2018-03-02T11:10:46.139Z,34.58
2018-03-02T11:13:13.666Z,33.25
2018-03-02T11:15:41.211Z,34.47
2018-03-02T11:18:09.536Z,33.58
2018-03-02T11:20:37.059Z,26.42
2018-03-02T11:23:04.606Z,33.95
2018-03-02T11:25:32.916Z,33.42
2018-03-02T11:28:00.455Z,32.95
2018-03-02T11:30:27.996Z,34.13
2018-03-02T11:32:56.315Z,34.15
2018-03-02T11:35:23.837Z,34.33
2018-03-02T11:37:52.131Z,36.05
2018-03-02T11:40:19.697Z,34.85
2018-03-02T11:42:47.215Z,36.58
2018-03-02T11:45:16.236Z,36.30
2018-03-02T11:47:43.803Z,32.63
2018-03-02T11:50:11.353Z,30.23
2018-03-02T11:52:38.894Z,27.87
2018-03-02T11:55:07.260Z,34.22
2018-03-02T11:57:34.795Z,37.10
2018-03-02T12:00:02.324Z,34.50
2018-03-02T12:02:29.865Z,35.25
2018-03-02T12:04:57.387Z,34.47
2018-03-02T12:07:24.914Z,34.80
2018-03-02T12:09:52.471Z,35.92
2018-03-02T12:12:20.017Z,34.22
2018-03-02T12:14:47.542Z,32.20
2018-03-02T12:17:15.888Z,33.42
2018-03-02T12:19:43.438Z,36.28
2018-03-02T12:22:11.730Z,34.85
2018-03-02T12:24:39.273Z,34.83
2018-03-02T12:27:06.813Z,35.47
2018-03-02T12:29:34.358Z,33.80
2018-03-02T12:32:01.907Z,33.30
2018-03-02T12:34:30.191Z,36.78
2018-03-02T12:36:57.722Z,36.92
2018-03-02T12:39:26.050Z,33.78
2018-03-02T12:41:53.580Z,33.75
2018-03-02T12:44:21.129Z,34.58
2018-03-02T12:46:49.454Z,33.22
2018-03-02T12:49:17.015Z,37.03
2018-03-02T12:51:44.545Z,34.92
2018-03-02T12:54:12.108Z,33.33
2018-03-02T12:56:39.907Z,30.25
2018-03-02T12:59:07.450Z,30.60
2018-03-02T13:01:35.033Z,33.08
2018-03-02T13:04:02.565Z,31.92
2018-03-02T13:06:30.083Z,34.92
2018-03-02T13:08:58.384Z,32.97
2018-03-02T13:11:25.898Z,31.55
2018-03-02T13:13:53.408Z,33.55
2018-03-02T13:16:20.960Z,34.90
2018-03-02T13:18:48.498Z,34.63
2018-03-02T13:21:16.786Z,31.95
2018-03-02T13:23:44.336Z,32.33
2018-03-02T13:26:24.303Z,32.15
2018-03-02T13:28:52.737Z,33.38
2018-03-02T13:31:20.242Z,34.03
2018-03-02T13:33:59.839Z,34.38
2018-03-02T13:36:27.360Z,34.15
2018-03-02T13:38:54.872Z,36.38
2018-03-02T13:41:35.182Z,35.03
2018-03-02T13:44:02.702Z,34.30
2018-03-02T13:46:31.003Z,34.40
2018-03-02T13:49:10.371Z,33.97
2018-03-02T13:51:37.925Z,35.55
2018-03-02T13:54:05.455Z,34.38
2018-03-02T13:56:44.752Z,35.05
2018-03-02T13:59:13.034Z,33.30
2018-03-02T14:01:41.328Z,35.22
2018-03-02T14:04:20.638Z,33.05
2018-03-02T14:06:48.160Z,34.00
2018-03-02T14:09:15.702Z,32.53
2018-03-02T14:11:43.245Z,33.40
2018-03-02T14:14:10.773Z,34.17
2018-03-02T14:16:38.307Z,31.65
2018-03-02T14:19:06.623Z,33.95
2018-03-02T14:21:34.931Z,33.00
2018-03-02T14:24:03.484Z,34.47
2018-03-02T14:26:31.094Z,35.45
2018-03-02T14:28:58.607Z,33.13
2018-03-02T14:31:26.996Z,35.35
2018-03-02T14:33:54.550Z,33.70
2018-03-02T14:36:22.094Z,33.53
2018-03-02T14:38:50.395Z,34.40
2018-03-02T14:41:17.943Z,31.85
2018-03-02T14:43:46.225Z,33.83
2018-03-02T14:46:13.769Z,31.98
2018-03-02T14:48:42.107Z,32.67
2018-03-02T14:51:09.626Z,31.62
2018-03-02T14:53:37.146Z,33.45
2018-03-02T14:56:04.712Z,31.85
2018-03-02T14:58:33.006Z,31.17
2018-03-02T15:01:01.281Z,34.20
2018-03-02T15:03:29.615Z,32.92
2018-03-02T15:05:57.124Z,32.55
2018-03-02T15:08:24.643Z,31.70
2018-03-02T15:10:52.188Z,33.83
2018-03-02T15:13:19.703Z,31.08
2018-03-02T15:15:47.243Z,34.55
2018-03-02T15:18:15.620Z,31.23
2018-03-02T15:20:43.898Z,34.03
2018-03-02T15:23:12.183Z,34.83
2018-03-02T15:25:40.508Z,34.25
2018-03-02T15:28:08.067Z,32.80
2018-03-02T15:30:35.562Z,32.97
2018-03-02T15:33:03.110Z,34.65
2018-03-02T15:35:30.630Z,34.78
2018-03-02T15:37:58.155Z,34.25
2018-03-02T15:40:26.476Z,34.70
2018-03-02T15:42:54.014Z,38.40
2018-03-02T15:45:21.547Z,40.17
2018-03-02T15:47:49.882Z,41.47
2018-03-02T15:50:17.413Z,40.65
2018-03-02T15:52:44.947Z,35.20
2018-03-02T15:55:13.299Z,66.07
2018-03-02T15:57:40.831Z,48.80
2018-03-02T16:00:08.355Z,38.10
2018-03-02T16:02:35.937Z,58.80
2018-03-02T16:05:03.468Z,50.92
2018-03-02T16:07:31.021Z,44.88
2018-03-02T16:09:58.570Z,37.20
2018-03-02T16:12:26.855Z,37.67
2018-03-02T16:14:55.139Z,38.03
2018-03-02T16:17:22.695Z,33.20
2018-03-02T16:19:50.223Z,35.40
2018-03-02T16:22:17.766Z,34.90
2018-03-02T16:24:45.315Z,33.65
2018-03-02T16:27:12.843Z,35.40
2018-03-02T16:29:40.363Z,34.42
2018-03-02T16:32:07.906Z,34.25
2018-03-02T16:34:35.449Z,33.15
2018-03-02T16:37:02.974Z,35.20
2018-03-02T16:39:30.518Z,34.15
2018-03-02T16:41:58.070Z,34.28
2018-03-02T16:44:26.376Z,37.50
2018-03-02T16:46:53.934Z,32.30
2018-03-02T16:49:21.477Z,35.50
2018-03-02T16:51:49.022Z,34.85
2018-03-02T16:54:17.378Z,33.40
2018-03-02T16:56:44.896Z,33.30
2018-03-02T16:59:12.437Z,34.83
2018-03-02T17:01:39.986Z,37.33
2018-03-02T17:04:08.286Z,34.85
2018-03-02T17:06:35.840Z,35.50
2018-03-02T17:09:03.404Z,34.17
2018-03-02T17:11:30.929Z,36.20
2018-03-02T17:13:59.253Z,35.17
2018-03-02T17:16:26.825Z,37.38
2018-03-02T17:18:54.343Z,36.90
2018-03-02T17:21:23.294Z,37.25
2018-03-02T17:23:50.860Z,37.13
2018-03-02T17:26:18.577Z,39.15
2018-03-02T17:31:13.042Z,37.00
2018-03-02T17:33:41.339Z,38.30
2018-03-02T17:36:08.883Z,36.50
2018-03-02T17:38:37.189Z,37.95
2018-03-02T17:41:06.605Z,37.42
2018-03-02T17:43:35.673Z,36.78
2018-03-02T17:46:03.237Z,35.17
2018-03-02T17:48:30.760Z,39.78
2018-03-02T17:50:58.871Z,38.58
2018-03-02T17:53:26.436Z,41.00
2018-03-02T17:55:53.963Z,38.67
2018-03-02T17:58:22.274Z,38.75
2018-03-02T18:00:49.846Z,39.83
2018-03-02T18:03:17.371Z,38.63
2018-03-02T18:05:45.728Z,36.88
2018-03-02T18:08:13.253Z,36.55
2018-03-02T18:10:40.804Z,36.72
2018-03-02T18:13:08.330Z,39.95
2018-03-02T18:15:36.636Z,37.10
2018-03-02T18:18:04.212Z,38.15
2018-03-02T18:20:31.769Z,38.90
2018-03-02T18:22:59.323Z,40.20
2018-03-02T18:25:26.859Z,38.22
2018-03-02T18:27:54.394Z,38.95
2018-03-02T18:30:22.696Z,40.55
2018-03-02T18:32:50.224Z,40.03
2018-03-02T18:35:18.538Z,41.45
2018-03-02T18:37:46.112Z,36.92
2018-03-02T18:40:13.638Z,40.35
2018-03-02T18:42:41.938Z,40.67
2018-03-02T18:45:09.497Z,37.00
2018-03-02T18:47:37.022Z,40.08
2018-03-02T18:50:05.329Z,38.42
2018-03-02T18:52:32.887Z,36.78
2018-03-02T18:55:00.412Z,38.67
2018-03-02T18:57:28.713Z,39.60
2018-03-02T18:59:56.259Z,36.72
2018-03-02T19:02:24.547Z,38.88
2018-03-02T19:04:52.095Z,36.55
2018-03-02T19:07:19.654Z,39.35
2018-03-02T19:09:47.973Z,42.45
2018-03-02T19:12:15.523Z,40.22
2018-03-02T19:14:43.680Z,40.20
2018-03-02T19:17:11.198Z,45.22
2018-03-02T19:19:38.745Z,40.50
2018-03-02T19:22:06.299Z,41.95
2018-03-02T19:24:33.822Z,40.78
2018-03-02T19:27:01.355Z,39.75
2018-03-02T19:29:29.685Z,38.78
2018-03-02T19:31:57.229Z,40.28
2018-03-02T19:34:24.748Z,40.80
2018-03-02T19:36:53.048Z,41.53
2018-03-02T19:39:20.574Z,42.40
2018-03-02T19:41:48.890Z,40.17
2018-03-02T19:44:16.440Z,40.78
2018-03-02T19:46:43.962Z,40.17
2018-03-02T19:49:12.265Z,41.25
2018-03-02T19:51:39.887Z,40.20
2018-03-02T19:54:07.415Z,40.03
2018-03-02T19:56:34.943Z,39.70
2018-03-02T19:59:03.249Z,40.50
2018-03-02T20:01:30.785Z,39.42
2018-03-02T20:03:58.304Z,41.13
2018-03-02T20:06:25.863Z,42.65
2018-03-02T20:08:53.421Z,41.92
2018-03-02T20:11:20.938Z,44.90
2018-03-02T20:13:48.497Z,40.78
2018-03-02T20:16:16.056Z,43.10
2018-03-02T20:18:43.591Z,41.22
2018-03-02T20:21:11.146Z,40.70
2018-03-02T20:23:39.456Z,43.15
2018-03-02T20:26:06.995Z,42.75
2018-03-02T20:28:34.562Z,45.47
2018-03-02T20:31:02.095Z,43.40
2018-03-02T20:33:30.398Z,42.45
2018-03-02T20:35:57.959Z,43.53
2018-03-02T20:38:25.497Z,43.92
2018-03-02T20:40:53.780Z,43.83
2018-03-02T20:43:21.346Z,42.10
2018-03-02T20:45:48.881Z,44.10
2018-03-02T20:48:17.180Z,45.95
2018-03-02T20:50:44.744Z,42.13
2018-03-02T20:53:12.272Z,41.37
2018-03-02T20:55:40.570Z,42.50
2018-03-02T20:58:08.945Z,43.33
2018-03-02T21:00:36.523Z,39.78
2018-03-02T21:03:04.102Z,44.55
2018-03-02T21:05:31.715Z,45.12
2018-03-02T21:08:00.073Z,44.10
2018-03-02T21:10:28.417Z,43.70
2018-03-02T21:12:56.260Z,42.60
2018-03-02T21:15:24.151Z,41.45
2018-03-02T21:17:53.168Z,43.50
2018-03-02T21:20:20.776Z,41.88
2018-03-02T21:22:48.392Z,44.83
2018-03-02T21:25:16.899Z,42.70
2018-03-02T21:27:45.275Z,42.33
2018-03-02T21:30:13.620Z,42.95
2018-03-02T21:32:41.213Z,44.15
2018-03-02T21:35:09.591Z,45.03
2018-03-02T21:37:37.943Z,42.47
2018-03-02T21:40:05.527Z,43.10
2018-03-02T21:42:33.961Z,42.97
2018-03-02T21:45:01.541Z,45.50
2018-03-02T21:47:29.125Z,44.58
2018-03-02T21:49:57.498Z,42.75
2018-03-02T21:52:25.077Z,42.28
2018-03-02T21:54:52.675Z,42.40
2018-03-02T21:57:20.277Z,41.88
2018-03-02T21:59:48.622Z,40.35
2018-03-02T22:02:16.202Z,44.22
2018-03-02T22:04:43.829Z,41.53
2018-03-02T22:07:11.413Z,42.88
2018-03-02T22:09:38.988Z,41.53
2018-03-02T22:12:06.582Z,43.28
2018-03-02T22:14:34.172Z,43.22
2018-03-02T22:17:01.782Z,43.50
2018-03-02T22:19:30.147Z,42.55
2018-03-02T22:21:57.736Z,42.17
2018-03-02T22:24:26.104Z,41.55
2018-03-02T22:26:53.719Z,43.38
2018-03-02T22:29:21.297Z,44.25
2018-03-02T22:31:48.878Z,39.65
2018-03-02T22:34:16.670Z,41.45
2018-03-02T22:36:44.250Z,43.17
2018-03-02T22:39:11.828Z,44.85
2018-03-02T22:41:39.438Z,44.13
2018-03-02T22:44:07.777Z,43.80
2018-03-02T22:46:35.365Z,45.72
2018-03-02T22:49:03.734Z,46.47
2018-03-02T22:51:31.319Z,46.45
2018-03-02T22:53:59.664Z,44.53
2018-03-02T22:56:27.275Z,42.70
2018-03-02T22:58:54.855Z,42.65
2018-03-02T23:01:22.451Z,45.03
2018-03-02T23:03:50.060Z,43.97
2018-03-02T23:06:17.642Z,40.50
2018-03-02T23:08:45.212Z,43.65
2018-03-02T23:11:12.816Z,41.97
2018-03-02T23:13:40.409Z,43.17
2018-03-02T23:16:07.989Z,43.47
2018-03-02T23:18:35.594Z,43.67
2018-03-02T23:21:03.938Z,43.03
2018-03-02T23:23:31.526Z,43.33
2018-03-02T23:25:59.893Z,43.20
2018-03-02T23:28:27.479Z,42.83
2018-03-02T23:30:55.060Z,42.83
2018-03-02T23:33:22.669Z,45.25
2018-03-02T23:35:50.249Z,42.28
2018-03-02T23:38:18.593Z,45.50
2018-03-02T23:40:46.206Z,43.00
2018-03-02T23:43:13.786Z,45.75
2018-03-02T23:45:41.367Z,44.83
2018-03-02T23:48:08.982Z,45.88
2018-03-02T23:50:36.570Z,42.85
2018-03-02T23:53:04.151Z,44.90
2018-03-02T23:55:31.771Z,43.78
2018-03-02T23:57:59.333Z,40.58
